SGAS/ASU METAR and TAF weather

Enter ICAO airport designator
Station Type Date Time Source
SGAS METAR 2019/08/22 04:00 UTC NOAA

SGAS 220400Z 15006KT CAVOK 18/07 Q1018


Station Type Date Time Source
SGAS Decoded METAR 2019/08/22 04:00 UTC NOAA

Station name not available
Aug 22, 2019 - 12:00 AM EDT / 2019.08.22 0400 UTC
Wind: from the SSE (150 degrees) at 7 MPH (6 KT):0
Visibility: greater than 7 mile(s):0
Temperature: 64 F (18 C)
Dew Point: 44 F (7 C)
Relative Humidity: 48%
Pressure (altimeter): 30.06 in. Hg (1018 hPa)
ob: SGAS 220400Z 15006KT CAVOK 18/07 Q1018
cycle: 4

Station Type Date Time Source
SGAS TAF 2019/08/21 18:45 UTC NOAA

TAF TAF SGAS 211642Z 2118/2218 VRB06KT CAVOK TX28/2118Z TN14/2209Z PROB30 2120/2123 12004KT 7000 NSC
BECMG 2203/2206 VRB06KT CAVOK
BECMG 2214/2216 16010KT 9999 BKN027

Example: see airport list